createdAt,value
2017-12-01T00:01:31.410Z,33.87
2017-12-01T00:04:00.079Z,31.43
2017-12-01T00:06:29.542Z,37.27
2017-12-01T00:08:57.862Z,33.67
2017-12-01T00:11:26.142Z,34.57
2017-12-01T00:13:54.427Z,33.90
2017-12-01T00:16:23.149Z,34.80
2017-12-01T00:18:51.438Z,36.63
2017-12-01T00:21:19.722Z,34.43
2017-12-01T00:23:48.063Z,34.03
2017-12-01T00:26:16.346Z,33.97
2017-12-01T00:28:45.990Z,35.23
2017-12-01T00:31:15.700Z,32.80
2017-12-01T00:33:43.864Z,35.00
2017-12-01T00:36:12.958Z,35.07
2017-12-01T00:38:41.294Z,34.57
2017-12-01T00:41:10.347Z,36.83
2017-12-01T00:43:38.622Z,36.27
2017-12-01T00:46:08.462Z,37.93
2017-12-01T00:48:37.514Z,38.03
2017-12-01T00:51:06.931Z,36.37
2017-12-01T00:53:35.328Z,38.97
2017-12-01T00:56:03.567Z,38.20
2017-12-01T00:58:31.846Z,36.07
2017-12-01T01:01:00.171Z,35.37
2017-12-01T01:03:28.463Z,35.33
2017-12-01T01:05:56.761Z,36.97
2017-12-01T01:08:25.858Z,38.23
2017-12-01T01:10:54.537Z,34.70
2017-12-01T01:13:23.594Z,39.33
2017-12-01T01:15:51.938Z,39.63
2017-12-01T01:18:20.233Z,36.30
2017-12-01T01:20:48.515Z,38.37
2017-12-01T01:23:17.641Z,38.00
2017-12-01T01:25:45.913Z,34.20
2017-12-01T01:28:14.585Z,34.57
2017-12-01T01:30:42.914Z,35.47
2017-12-01T01:33:12.557Z,32.63
2017-12-01T01:35:40.731Z,30.50
2017-12-01T01:38:09.079Z,27.37
2017-12-01T01:40:37.351Z,23.07
2017-12-01T01:43:07.007Z,23.40
2017-12-01T01:45:35.614Z,25.40
2017-12-01T01:48:03.922Z,22.30
2017-12-01T01:50:32.206Z,23.53
2017-12-01T01:53:00.552Z,25.70
2017-12-01T01:55:28.833Z,25.10
2017-12-01T01:57:57.117Z,24.03
2017-12-01T02:00:25.875Z,25.00
2017-12-01T02:02:54.150Z,27.13
2017-12-01T02:05:22.426Z,27.30
2017-12-01T02:07:50.771Z,27.13
2017-12-01T02:10:20.196Z,29.57
2017-12-01T02:12:48.491Z,26.90
2017-12-01T02:15:16.842Z,26.93
2017-12-01T02:17:45.121Z,30.90
2017-12-01T02:20:13.413Z,33.23
2017-12-01T02:22:41.734Z,33.63
2017-12-01T02:25:11.333Z,34.43
2017-12-01T02:27:39.618Z,35.70
2017-12-01T02:30:08.356Z,34.27
2017-12-01T02:32:38.175Z,37.07
2017-12-01T02:35:06.449Z,36.50
2017-12-01T02:37:35.567Z,36.77
2017-12-01T02:40:03.981Z,36.90
2017-12-01T02:42:33.026Z,37.03
2017-12-01T02:45:01.379Z,35.57
2017-12-01T02:47:30.065Z,35.13
2017-12-01T02:49:58.342Z,38.17
2017-12-01T02:52:26.856Z,37.50
2017-12-01T02:54:55.136Z,37.53
2017-12-01T02:57:23.413Z,36.43
2017-12-01T02:59:52.505Z,36.47
2017-12-01T03:02:20.793Z,36.90
2017-12-01T03:04:49.099Z,35.17
2017-12-01T03:07:17.426Z,36.50
2017-12-01T03:09:45.710Z,35.60
2017-12-01T03:12:14.003Z,35.33
2017-12-01T03:14:42.456Z,34.30
2017-12-01T03:17:10.731Z,34.80
2017-12-01T03:19:39.407Z,35.37
2017-12-01T03:22:07.843Z,32.77
2017-12-01T03:24:36.133Z,32.23
2017-12-01T03:27:04.413Z,31.97
2017-12-01T03:29:33.877Z,31.10
2017-12-01T03:32:05.998Z,30.17
2017-12-01T03:34:34.317Z,32.17
2017-12-01T03:37:03.455Z,31.43
2017-12-01T03:39:32.511Z,32.10
2017-12-01T03:42:00.838Z,31.67
2017-12-01T03:44:29.131Z,28.40
2017-12-01T03:49:58.158Z,32.53
2017-12-01T03:52:27.582Z,32.50
2017-12-01T03:54:55.870Z,33.30
2017-12-01T03:57:24.220Z,32.20
2017-12-01T03:59:52.501Z,35.70
2017-12-01T04:02:21.551Z,32.50
2017-12-01T04:04:49.941Z,34.60
2017-12-01T04:07:18.982Z,30.13
2017-12-01T04:09:47.664Z,32.27
2017-12-01T04:12:16.006Z,30.53
2017-12-01T04:14:45.642Z,30.83
2017-12-01T04:17:14.193Z,29.90
2017-12-01T04:19:42.526Z,29.67
2017-12-01T04:22:10.824Z,31.37
2017-12-01T04:24:39.105Z,32.50
2017-12-01T04:27:07.439Z,30.43
2017-12-01T04:29:35.727Z,28.27
2017-12-01T04:32:04.011Z,28.40
2017-12-01T04:34:36.247Z,29.93
2017-12-01T04:37:04.924Z,27.83
2017-12-01T04:39:33.216Z,27.50
2017-12-01T04:42:01.542Z,26.40
2017-12-01T04:44:31.058Z,26.37
2017-12-01T04:46:59.338Z,25.50
2017-12-01T04:49:27.694Z,26.23
2017-12-01T04:51:55.991Z,23.60
2017-12-01T04:54:24.298Z,26.13
2017-12-01T04:56:52.628Z,27.63
2017-12-01T04:59:22.045Z,25.17
2017-12-01T05:01:51.673Z,23.67
2017-12-01T05:04:20.315Z,25.10
2017-12-01T05:06:49.347Z,23.60
2017-12-01T05:09:18.762Z,25.03
2017-12-01T05:11:47.088Z,26.17
2017-12-01T05:14:15.779Z,25.57
2017-12-01T05:16:45.417Z,25.73
2017-12-01T05:19:15.009Z,26.67
2017-12-01T05:21:43.954Z,26.70
2017-12-01T05:24:12.267Z,28.70
2017-12-01T05:26:40.601Z,29.70
2017-12-01T05:29:09.286Z,30.10
2017-12-01T05:31:37.572Z,31.10
2017-12-01T05:34:07.425Z,29.60
2017-12-01T05:36:35.722Z,28.80
2017-12-01T05:39:04.015Z,28.40
2017-12-01T05:41:33.841Z,28.57
2017-12-01T05:44:02.896Z,29.90
2017-12-01T05:46:31.202Z,30.40
2017-12-01T05:49:00.300Z,26.70
2017-12-01T05:51:28.570Z,26.73
2017-12-01T05:53:56.863Z,29.73
2017-12-01T05:56:25.226Z,28.63
2017-12-01T05:58:54.070Z,26.40
2017-12-01T06:01:22.751Z,26.70
2017-12-01T06:03:51.855Z,27.43
2017-12-01T06:06:20.136Z,29.10
2017-12-01T06:08:49.180Z,28.10
2017-12-01T06:11:17.507Z,27.93
2017-12-01T06:13:45.794Z,28.77
2017-12-01T06:16:14.070Z,29.27
2017-12-01T06:18:43.555Z,26.57
2017-12-01T06:21:11.834Z,28.63
2017-12-01T06:23:40.116Z,29.13
2017-12-01T06:26:08.441Z,28.90
2017-12-01T06:28:36.717Z,31.17
2017-12-01T06:31:06.527Z,30.43
2017-12-01T06:33:34.855Z,33.47
2017-12-01T06:36:04.646Z,35.93
2017-12-01T06:38:32.935Z,36.13
2017-12-01T06:41:01.263Z,36.57
2017-12-01T06:43:29.539Z,34.73
2017-12-01T06:45:57.822Z,34.47
2017-12-01T06:48:26.151Z,33.43
2017-12-01T06:50:54.433Z,35.90
2017-12-01T06:53:24.073Z,32.63
2017-12-01T06:55:53.427Z,33.40
2017-12-01T06:58:21.707Z,36.53
2017-12-01T07:00:50.020Z,38.67
2017-12-01T07:03:18.363Z,38.40
2017-12-01T07:05:47.790Z,38.57
2017-12-01T07:08:16.852Z,37.80
2017-12-01T07:10:45.186Z,36.70
2017-12-01T07:13:13.469Z,37.60
2017-12-01T07:15:42.534Z,38.33
2017-12-01T07:18:12.234Z,42.57
2017-12-01T07:20:41.530Z,40.80
2017-12-01T07:23:10.576Z,42.30
2017-12-01T07:25:39.306Z,46.00
2017-12-01T07:28:07.594Z,44.10
2017-12-01T07:30:35.882Z,46.63
2017-12-01T07:33:04.988Z,45.60
2017-12-01T07:35:33.273Z,43.63
2017-12-01T07:38:01.573Z,46.13
2017-12-01T07:40:31.407Z,46.97
2017-12-01T07:43:01.219Z,45.93
2017-12-01T07:45:32.162Z,47.63
2017-12-01T07:48:00.447Z,43.63
2017-12-01T07:50:28.729Z,43.47
2017-12-01T07:52:57.831Z,48.97
2017-12-01T07:55:26.883Z,46.53
2017-12-01T07:57:55.176Z,46.33
2017-12-01T08:00:24.643Z,49.60
2017-12-01T08:02:52.943Z,51.57
2017-12-01T08:05:21.622Z,54.87
2017-12-01T08:07:51.467Z,55.47
2017-12-01T08:13:20.902Z,48.77
2017-12-01T08:16:01.911Z,45.90
2017-12-01T08:18:42.782Z,48.00
2017-12-01T08:21:11.072Z,49.43
2017-12-01T08:23:51.283Z,47.60
2017-12-01T08:26:19.571Z,48.30
2017-12-01T08:28:47.858Z,51.37
2017-12-01T08:31:16.179Z,49.47
2017-12-01T08:33:44.467Z,50.60
2017-12-01T08:36:12.750Z,55.00
2017-12-01T08:38:42.011Z,53.00
2017-12-01T08:41:10.294Z,48.17
2017-12-01T08:43:38.570Z,50.47
2017-12-01T08:46:06.926Z,46.57
2017-12-01T08:48:35.210Z,44.33
2017-12-01T08:51:03.488Z,45.07
2017-12-01T08:53:32.139Z,45.23
2017-12-01T08:56:01.927Z,42.33
2017-12-01T08:58:31.347Z,45.00
2017-12-01T09:01:00.815Z,46.00
2017-12-01T09:03:29.107Z,42.40
2017-12-01T09:05:57.399Z,45.27
2017-12-01T09:08:26.122Z,41.90
2017-12-01T09:10:54.398Z,43.50
2017-12-01T09:13:23.443Z,43.90
2017-12-01T09:15:51.770Z,42.97
2017-12-01T09:18:20.046Z,43.30
2017-12-01T09:20:48.359Z,43.40
2017-12-01T09:23:16.699Z,39.83
2017-12-01T09:25:46.494Z,39.17
2017-12-01T09:28:14.776Z,42.87
2017-12-01T09:30:43.102Z,38.90
2017-12-01T09:33:11.382Z,40.20
2017-12-01T09:35:40.439Z,43.27
2017-12-01T09:38:08.761Z,42.10
2017-12-01T09:40:38.561Z,44.20
2017-12-01T09:43:06.863Z,41.90
2017-12-01T09:45:35.242Z,40.87
2017-12-01T09:48:03.514Z,43.57
2017-12-01T09:50:31.793Z,42.60
2017-12-01T09:53:01.250Z,41.07
2017-12-01T09:55:29.542Z,38.27
2017-12-01T09:57:58.587Z,41.27
2017-12-01T10:00:28.418Z,39.37
2017-12-01T10:02:56.703Z,39.20
2017-12-01T10:05:26.504Z,38.17
2017-12-01T10:07:54.867Z,36.23
2017-12-01T10:10:23.143Z,39.03
2017-12-01T10:12:52.194Z,41.33
2017-12-01T10:15:21.288Z,42.57
2017-12-01T10:17:50.331Z,41.67
2017-12-01T10:20:18.614Z,43.67
2017-12-01T10:22:46.933Z,42.63
2017-12-01T10:25:15.210Z,42.90
2017-12-01T10:27:44.849Z,45.63
2017-12-01T10:30:13.824Z,39.90
2017-12-01T10:32:47.883Z,40.90
2017-12-01T10:35:16.215Z,40.60
2017-12-01T10:37:44.497Z,43.03
2017-12-01T10:40:13.546Z,37.00
2017-12-01T10:42:41.893Z,32.67
2017-12-01T10:45:10.170Z,34.80
2017-12-01T10:47:38.445Z,32.40
2017-12-01T10:50:06.782Z,28.80
2017-12-01T10:52:35.066Z,31.47
2017-12-01T10:55:04.109Z,33.83
2017-12-01T10:57:32.829Z,30.40
2017-12-01T11:00:02.615Z,34.30
2017-12-01T11:02:31.659Z,30.97
2017-12-01T11:05:01.306Z,33.20
2017-12-01T11:07:30.350Z,37.00
2017-12-01T11:09:58.631Z,34.17
2017-12-01T11:12:26.963Z,34.40
2017-12-01T11:14:55.242Z,35.67
2017-12-01T11:17:23.514Z,39.07
2017-12-01T11:19:51.838Z,37.80
2017-12-01T11:22:20.128Z,37.73
2017-12-01T11:24:48.408Z,30.10
2017-12-01T11:27:17.505Z,30.90
2017-12-01T11:29:47.134Z,32.73
2017-12-01T11:32:16.438Z,29.33
2017-12-01T11:34:44.782Z,30.60
2017-12-01T11:37:13.066Z,31.80
2017-12-01T11:39:42.137Z,35.67
2017-12-01T11:42:10.467Z,32.93
2017-12-01T11:44:38.750Z,29.00
2017-12-01T11:47:07.032Z,28.50
2017-12-01T11:49:36.495Z,28.17
2017-12-01T11:52:04.782Z,26.40
2017-12-01T11:54:33.829Z,21.87
2017-12-01T11:57:03.666Z,23.80
2017-12-01T11:59:33.083Z,21.97
2017-12-01T12:02:01.368Z,21.37
2017-12-01T12:04:29.699Z,22.70
2017-12-01T12:06:57.977Z,21.60
2017-12-01T12:09:26.267Z,23.87
2017-12-01T12:11:54.590Z,23.83
2017-12-01T12:14:24.387Z,20.87
2017-12-01T12:16:52.666Z,23.00
2017-12-01T12:19:21.757Z,21.77
2017-12-01T12:21:50.034Z,22.37
2017-12-01T12:24:18.322Z,24.30
2017-12-01T12:26:46.657Z,21.37
2017-12-01T12:29:14.938Z,24.50
2017-12-01T12:31:43.226Z,21.13
2017-12-01T12:34:12.695Z,22.93
2017-12-01T12:36:40.978Z,21.50
2017-12-01T12:39:09.258Z,23.70
2017-12-01T12:41:37.586Z,21.80
2017-12-01T12:44:05.869Z,22.70
2017-12-01T12:46:34.137Z,23.33
2017-12-01T12:49:03.835Z,23.80
2017-12-01T12:51:31.992Z,22.20
2017-12-01T12:54:00.277Z,20.27
2017-12-01T12:56:29.450Z,20.17
2017-12-01T12:58:57.686Z,22.80
2017-12-01T13:01:26.743Z,23.00
2017-12-01T13:03:55.063Z,19.80
2017-12-01T13:06:23.333Z,20.27
2017-12-01T13:08:52.031Z,22.47
2017-12-01T13:11:21.726Z,21.77
2017-12-01T13:13:51.022Z,20.10
2017-12-01T13:16:20.443Z,20.10
2017-12-01T13:18:48.782Z,20.37
2017-12-01T13:21:17.074Z,19.93
2017-12-01T13:23:45.350Z,19.93
2017-12-01T13:26:13.686Z,18.50
2017-12-01T13:28:41.972Z,20.37
2017-12-01T13:31:11.390Z,20.87
2017-12-01T13:33:39.713Z,16.83
2017-12-01T13:36:07.990Z,19.20
2017-12-01T13:38:36.274Z,17.23
2017-12-01T13:41:04.608Z,19.43
2017-12-01T13:43:33.655Z,18.00
2017-12-01T13:46:01.935Z,18.07
2017-12-01T13:48:30.598Z,17.87
2017-12-01T13:51:00.237Z,19.27
2017-12-01T13:53:28.401Z,20.07
2017-12-01T13:55:58.243Z,20.47
2017-12-01T13:58:26.521Z,21.00
2017-12-01T14:00:54.830Z,20.47
2017-12-01T14:03:23.170Z,23.03
2017-12-01T14:05:52.595Z,21.33
2017-12-01T14:08:20.874Z,20.20
2017-12-01T14:10:49.226Z,20.93
2017-12-01T14:13:17.514Z,21.17
2017-12-01T14:15:47.143Z,21.00
2017-12-01T14:18:16.693Z,21.37
2017-12-01T14:20:45.986Z,22.40
2017-12-01T14:23:14.265Z,22.30
2017-12-01T14:25:42.610Z,24.40
2017-12-01T14:28:11.658Z,21.20
2017-12-01T14:30:41.447Z,24.80
2017-12-01T14:33:09.774Z,24.30
2017-12-01T14:35:38.850Z,24.47
2017-12-01T14:38:07.918Z,25.70
2017-12-01T14:40:36.282Z,28.90
2017-12-01T14:43:04.567Z,27.03
2017-12-01T14:45:32.862Z,20.70
2017-12-01T14:48:01.971Z,22.87
2017-12-01T14:50:31.082Z,23.40
2017-12-01T14:52:59.379Z,22.17
2017-12-01T14:55:29.227Z,21.47
2017-12-01T14:57:57.392Z,21.93
2017-12-01T15:00:25.690Z,20.93
2017-12-01T15:02:54.020Z,19.60
2017-12-01T15:05:22.315Z,20.30
2017-12-01T15:07:51.362Z,18.87
2017-12-01T15:10:19.717Z,18.53
2017-12-01T15:12:48.010Z,18.63
2017-12-01T15:15:16.296Z,18.10
2017-12-01T15:17:44.642Z,19.27
2017-12-01T15:20:12.939Z,17.60
2017-12-01T15:22:41.208Z,20.70
2017-12-01T15:25:10.297Z,19.30
2017-12-01T15:27:38.600Z,18.80
2017-12-01T15:30:06.877Z,19.80
2017-12-01T15:32:35.349Z,21.10
2017-12-01T15:35:04.401Z,20.67
2017-12-01T15:37:33.455Z,19.93
2017-12-01T15:40:01.785Z,19.63
2017-12-01T15:42:30.243Z,18.20
2017-12-01T15:44:58.999Z,20.97
2017-12-01T15:47:27.329Z,21.30
2017-12-01T15:49:55.693Z,19.97
2017-12-01T15:52:25.237Z,21.50
2017-12-01T15:54:53.566Z,18.47
2017-12-01T15:57:21.889Z,20.77
2017-12-01T15:59:51.753Z,20.07
2017-12-01T16:02:20.709Z,27.00
2017-12-01T16:04:49.198Z,20.57
2017-12-01T16:07:18.639Z,20.37
2017-12-01T16:09:46.977Z,22.60
2017-12-01T16:12:15.395Z,20.30
2017-12-01T16:14:43.682Z,23.97
2017-12-01T16:17:12.202Z,21.33
2017-12-01T16:19:53.146Z,21.67
2017-12-01T16:22:23.157Z,23.13
2017-12-01T16:24:52.301Z,22.70
2017-12-01T16:27:21.179Z,20.50
2017-12-01T16:29:49.684Z,21.10
2017-12-01T16:32:19.122Z,20.87
2017-12-01T16:34:47.433Z,23.20
2017-12-01T16:37:15.791Z,25.27
2017-12-01T16:39:44.190Z,22.50
2017-12-01T16:42:13.830Z,23.93
2017-12-01T16:44:42.830Z,23.30
2017-12-01T16:47:11.902Z,24.70
2017-12-01T16:49:40.312Z,24.47
2017-12-01T16:52:08.666Z,27.23
2017-12-01T16:54:37.077Z,28.80
2017-12-01T16:57:06.879Z,26.30
2017-12-01T16:59:35.325Z,24.10
2017-12-01T17:02:04.403Z,23.90
2017-12-01T17:04:32.690Z,21.60
2017-12-01T17:07:02.374Z,25.70
2017-12-01T17:09:30.687Z,25.77
2017-12-01T17:11:59.730Z,24.97
2017-12-01T17:14:28.482Z,23.33
2017-12-01T17:16:56.897Z,30.47
2017-12-01T17:19:25.190Z,27.60
2017-12-01T17:21:53.996Z,32.10
2017-12-01T17:24:22.332Z,32.00
2017-12-01T17:26:50.692Z,27.70
2017-12-01T17:29:19.803Z,29.63
2017-12-01T17:31:48.090Z,30.70
2017-12-01T17:34:16.433Z,26.30
2017-12-01T17:36:46.378Z,28.93
2017-12-01T17:39:15.436Z,28.37
2017-12-01T17:41:44.130Z,31.90
2017-12-01T17:44:12.594Z,25.87
2017-12-01T17:46:41.407Z,28.47
2017-12-01T17:49:09.770Z,29.57
2017-12-01T17:51:38.183Z,28.70
2017-12-01T17:54:07.014Z,29.57
2017-12-01T17:56:35.459Z,30.40
2017-12-01T17:59:03.878Z,26.40
2017-12-01T18:01:32.997Z,28.70
2017-12-01T18:04:01.287Z,27.67
2017-12-01T18:06:29.767Z,29.90
2017-12-01T18:08:58.076Z,31.53
2017-12-01T18:11:26.381Z,29.30
2017-12-01T18:13:55.503Z,29.40
2017-12-01T18:16:24.187Z,34.17
2017-12-01T18:18:54.350Z,34.87
2017-12-01T18:21:23.321Z,37.30
2017-12-01T18:23:51.615Z,35.60
2017-12-01T18:26:20.299Z,35.57
2017-12-01T18:28:48.630Z,35.10
2017-12-01T18:31:18.289Z,31.70
2017-12-01T18:33:46.455Z,31.10
2017-12-01T18:36:14.876Z,30.60
2017-12-01T18:38:44.294Z,29.20
2017-12-01T18:41:12.985Z,30.10
2017-12-01T18:43:42.668Z,30.27
2017-12-01T18:46:11.253Z,28.37
2017-12-01T18:48:40.293Z,29.93
2017-12-01T18:51:09.442Z,28.80
2017-12-01T18:53:37.748Z,29.13
2017-12-01T18:56:06.056Z,28.00
2017-12-01T18:58:34.401Z,31.30
2017-12-01T19:01:03.486Z,30.60
2017-12-01T19:03:31.776Z,28.73
2017-12-01T19:06:00.135Z,29.00
2017-12-01T19:08:28.827Z,31.70
2017-12-01T19:10:57.109Z,30.10
2017-12-01T19:13:25.463Z,30.43
2017-12-01T19:15:54.570Z,30.13
2017-12-01T19:18:22.853Z,33.53
2017-12-01T19:20:51.193Z,32.20
2017-12-01T19:23:20.982Z,30.60
2017-12-01T19:25:49.285Z,31.13
2017-12-01T19:28:17.650Z,33.40
2017-12-01T19:30:45.938Z,31.90
2017-12-01T19:33:14.237Z,34.00
2017-12-01T19:35:42.620Z,29.10
2017-12-01T19:38:11.943Z,31.43
2017-12-01T19:40:41.984Z,33.30
2017-12-01T19:43:10.400Z,32.23
2017-12-01T19:45:38.763Z,32.70
2017-12-01T19:48:08.493Z,31.93
2017-12-01T19:50:37.065Z,30.50
2017-12-01T19:53:06.212Z,30.33
2017-12-01T19:55:34.566Z,31.60
2017-12-01T19:58:03.660Z,32.63
2017-12-01T20:00:32.800Z,34.43
2017-12-01T20:03:01.234Z,36.80
2017-12-01T20:05:29.655Z,34.80
2017-12-01T20:07:58.730Z,32.40
2017-12-01T20:10:27.087Z,32.03
2017-12-01T20:12:56.897Z,36.08
2017-12-01T20:15:25.183Z,35.67
2017-12-01T20:17:53.522Z,34.22
2017-12-01T20:20:21.889Z,34.87
2017-12-01T20:25:50.194Z,32.50
2017-12-01T20:28:18.510Z,32.40
2017-12-01T20:30:46.831Z,33.17
2017-12-01T20:33:15.162Z,35.95
2017-12-01T20:35:43.479Z,35.60
2017-12-01T20:38:11.851Z,34.47
2017-12-01T20:40:41.558Z,34.53
2017-12-01T20:43:11.214Z,37.80
2017-12-01T20:45:40.759Z,36.60
2017-12-01T20:48:09.072Z,34.38
2017-12-01T20:50:38.838Z,36.28
2017-12-01T20:53:07.032Z,32.53
2017-12-01T20:55:35.380Z,33.60
2017-12-01T20:58:03.666Z,33.42
2017-12-01T21:00:31.958Z,39.35
2017-12-01T21:03:00.471Z,41.28
2017-12-01T21:05:29.574Z,39.42
2017-12-01T21:07:57.863Z,36.67
2017-12-01T21:10:27.205Z,36.35
2017-12-01T21:12:55.510Z,36.55
2017-12-01T21:15:24.577Z,37.95
2017-12-01T21:17:52.935Z,38.03
2017-12-01T21:20:21.230Z,38.60
2017-12-01T21:22:50.298Z,40.67
2017-12-01T21:25:18.639Z,39.45
2017-12-01T21:27:46.927Z,37.60
2017-12-01T21:30:16.594Z,38.85
2017-12-01T21:32:45.210Z,40.08
2017-12-01T21:35:13.502Z,38.17
2017-12-01T21:37:41.804Z,38.08
2017-12-01T21:40:10.146Z,37.47
2017-12-01T21:42:38.458Z,36.55
2017-12-01T21:45:06.754Z,35.13
2017-12-01T21:47:35.100Z,36.13
2017-12-01T21:50:04.151Z,37.78
2017-12-01T21:52:32.434Z,36.53
2017-12-01T21:55:00.768Z,34.83
2017-12-01T21:57:29.054Z,34.28
2017-12-01T21:59:58.487Z,36.08
2017-12-01T22:02:27.237Z,37.25
2017-12-01T22:04:55.541Z,36.20
2017-12-01T22:07:23.831Z,40.58
2017-12-01T22:09:52.210Z,36.63
2017-12-01T22:12:20.490Z,39.17
2017-12-01T22:14:50.138Z,40.83
2017-12-01T22:17:18.742Z,39.85
2017-12-01T22:19:47.790Z,39.67
2017-12-01T22:22:16.083Z,38.67
2017-12-01T22:24:45.315Z,39.20
2017-12-01T22:27:13.611Z,37.33
2017-12-01T22:29:41.901Z,38.53
2017-12-01T22:32:14.835Z,34.80
2017-12-01T22:34:43.118Z,35.25
2017-12-01T22:37:11.414Z,36.20
2017-12-01T22:39:40.538Z,34.90
2017-12-01T22:42:10.187Z,36.03
2017-12-01T22:44:39.121Z,36.10
2017-12-01T22:47:08.222Z,36.20
2017-12-01T22:49:36.571Z,35.97
2017-12-01T22:52:04.822Z,37.00
2017-12-01T22:54:34.309Z,38.55
2017-12-01T22:57:02.599Z,36.88
2017-12-01T22:59:30.881Z,41.42
2017-12-01T23:01:59.205Z,37.50
2017-12-01T23:04:27.488Z,38.20
2017-12-01T23:06:55.769Z,38.50
2017-12-01T23:09:25.615Z,40.65
2017-12-01T23:11:55.253Z,43.75
2017-12-01T23:14:23.823Z,43.33
2017-12-01T23:16:52.162Z,43.85
2017-12-01T23:19:21.587Z,40.15
2017-12-01T23:21:50.633Z,41.83
2017-12-01T23:24:19.730Z,42.08
2017-12-01T23:26:49.164Z,43.85
2017-12-01T23:29:17.850Z,43.87
2017-12-01T23:31:46.202Z,45.75
2017-12-01T23:34:14.490Z,44.70
2017-12-01T23:36:42.779Z,45.33
2017-12-01T23:39:12.249Z,45.15
2017-12-01T23:41:40.530Z,43.80
2017-12-01T23:44:08.818Z,43.95
2017-12-01T23:46:38.513Z,44.63
2017-12-01T23:49:07.442Z,45.25
2017-12-01T23:51:35.723Z,45.67
2017-12-01T23:54:04.071Z,44.08
2017-12-01T23:56:33.137Z,48.20
2017-12-01T23:59:02.199Z,48.53
